AirNav   ATP
 
 466 users online  

SN22 Hoelting Airport
Basehor, Kansas, USA

GOING TO BASEHOR?


FAA INFORMATION EFFECTIVE 20 JULY 2017

Location

FAA Identifier: SN22
Lat/Long: 39-06-43.9832N / 094-57-22.1483W
39-06.733053N / 094-57.369138W
39.1122176 / -94.9561523
(estimated)
Elevation: 960 ft. / 293 m (estimated)
Variation: 05E (1985)
From city: 2 miles SW of BASEHOR, KS
Time zone: UTC -5 (UTC -6 during Standard Time)
Zip code: 66012

Airport Operations

Airport use: Private use. Permission required prior to landing
Activation date: 03/1960
Control tower: no
ARTCC: KANSAS CITY CENTER
FSS: WICHITA FLIGHT SERVICE STATION
Attendance: UNATNDD
Wind indicator: yes
Segmented circle: no

Airport Communications

WX ASOS at LWC (14 nm SW): 121.225 (785-749-1309)
WX ASOS at MCI (16 nm NE): PHONE 816-329-2808
WX ASOS at MKC (17 nm E): PHONE 816-329-2843
WX ASOS at IXD (17 nm S): 135.325 (913-780-6987)
WX ASOS at OJC (19 nm SE): PHONE 913-780-6969

Nearby radio navigation aids

VOR radial/distance  VOR name  Freq  Var
MCIr219/14.5KANSAS CITY VORTAC113.2505E
RISr263/16.7RIVERSIDE VOR/DME111.4005E
TOPr088/27.6TOPEKA VORTAC117.8005E
ANXr264/38.5NAPOLEON VORTAC114.0007E

Airport Services

Airframe service: NONE
Powerplant service: NONE

Runway Information

Runway 17/35

Dimensions: 2100 x 60 ft. / 640 x 18 m
Surface: turf
RUNWAY 17  RUNWAY 35
Latitude: 39-06.905435N39-06.560672N
Longitude: 094-57.388208W094-57.350067W
Traffic pattern: leftleft
Obstructions: 30 ft. pline, 200 ft. from runwaynone

Airport Ownership and Management from official FAA records

Ownership: Privately-owned
Owner: ALBERT HOELTING
16247 STATE AVE
BASEHOR, KS 66007
Phone 913-724-2443
Manager: ALBERT HOELTING
16247 STATE AVE
BASEHOR, KS 66007
Phone 913-909-7723

Airport Operational Statistics

Aircraft based on the field: 12
Single engine airplanes: 12
    

Instrument Procedures

There are no published instrument procedures at SN22.

Some nearby airports with instrument procedures:

KLWC - Lawrence Municipal Airport (14 nm SW)
KFLV - Sherman Army Airfield (15 nm N)
KMCI - Kansas City International Airport (16 nm NE)
KMKC - Charles B Wheeler Downtown Airport (17 nm E)
KIXD - New Century AirCenter Airport (17 nm S)
KOJC - Johnson County Executive Airport (19 nm SE)
 
Loc | Ops | Rwys | IFR | FBO | Links
Com | Nav | Svcs | Stats | Notes

Kansas City Aviation Department
 
Area around SN22 (Hoelting Airport)
 
Road maps at: MapQuest Bing Google
 
Aerial photo
WARNING: Photo may not be current or correct
Aerial photo of SN22 (Hoelting Airport)
Photo by John Peters
Taken in June 2010

Do you have a better or more recent aerial photo of Hoelting Airport that you would like to share? If so, please send us your photo.

 
Sectional chart

 
Airport distance calculator
Flying to Hoelting Airport? Find the distance to fly.

From to SN22

Sunrise and sunset
Times for 24-Jul-2017
 Local
(UTC-5)
 Zulu
(UTC)
Morning civil twilight05:4410:44
Sunrise06:1411:14
Sunset20:3801:38
Evening civil twilight21:0902:09

Current date and time
Zulu (UTC)  24-Jul-2017 10:58:45
Local (UTC-5)  24-Jul-2017 05:58:45
 
METAR
KLWC 
13nm SW 
241052Z AUTO 00000KT 10SM BKN041 22/19 A2998 RMK AO2 SLP143 T02170194 TSNO
KMCI 
15nm NE 
241053Z 05006KT 10SM FEW043 21/18 A2999 RMK AO2 SLP141 T02110183
KMKC 
17nm E 
241054Z 05007KT 10SM CLR 22/19 A2997 RMK AO2 SLP139 T02220189
KIXD 
18nm S 
241053Z AUTO 06005KT 10SM OVC038 23/18 A2998 RMK AO2 SLP139 T02280183
KOJC 
19nm SE 
241053Z AUTO 05006KT 10SM SCT037 22/18 A2998 RMK AO2 SLP138 T02170183
TAF
KMCI 
15nm NE 
240520Z 2406/2506 07006KT P6SM FEW250
KMKC 
17nm E 
240520Z 2406/2506 07005KT P6SM FEW200
KIXD 
18nm S 
240520Z 2406/2506 07003KT P6SM FEW250
NOTAMs
Click for the latest NOTAMs
NOTAMs are issued by the DoD/FAA and will open in a separate window not controlled by AirNav.

 

 
 

Would you like to see your business listed on this page?

 If your business provides an interesting product or service to pilots, flight crews, aircraft, or users of the Hoelting Airport, you should consider listing it here.  To start the listing process, click on the button below
 
Add a business
 

Other Pages about Hoelting Airport

Update a link
 
Copyright © AirNav, LLC. All rights reserved. Privacy Policy  Contact